createdAt,value
2022-12-18T00:02:16.697Z,100.00
2022-12-18T00:04:43.694Z,100.00
2022-12-18T00:07:10.622Z,100.00
2022-12-18T00:09:39.994Z,100.00
2022-12-18T00:14:42.761Z,100.00
2022-12-18T00:17:09.570Z,100.00
2022-12-18T00:19:37.641Z,100.00
2022-12-18T00:22:04.442Z,100.00
2022-12-18T00:24:31.329Z,100.00
2022-12-18T00:26:58.336Z,100.00
2022-12-18T00:29:25.113Z,100.00
2022-12-18T00:31:52.038Z,100.00
2022-12-18T00:34:19.109Z,100.00
2022-12-18T00:36:48.984Z,100.00
2022-12-18T00:39:15.726Z,100.00
2022-12-18T00:42:03.605Z,100.00
2022-12-18T00:44:31.875Z,100.00
2022-12-18T00:46:58.723Z,100.00
2022-12-18T00:49:25.640Z,100.00
2022-12-18T00:51:54.351Z,100.00
2022-12-18T00:54:21.251Z,100.00
2022-12-18T00:56:49.951Z,100.00
2022-12-18T00:59:18.907Z,100.00
2022-12-18T01:01:46.113Z,100.00
2022-12-18T01:04:13.121Z,100.00
2022-12-18T01:06:40.150Z,100.00
2022-12-18T01:09:08.690Z,100.00
2022-12-18T01:11:37.566Z,100.00
2022-12-18T01:14:05.119Z,100.00
2022-12-18T01:16:32.223Z,100.00
2022-12-18T01:18:59.138Z,100.00
2022-12-18T01:21:28.151Z,100.00
2022-12-18T01:23:56.329Z,100.00
2022-12-18T01:26:26.528Z,100.00
2022-12-18T01:28:55.448Z,100.00
2022-12-18T01:31:26.199Z,100.00
2022-12-18T01:33:53.994Z,100.00
2022-12-18T01:36:23.348Z,100.00
2022-12-18T01:38:51.380Z,100.00
2022-12-18T01:41:23.599Z,100.00
2022-12-18T01:43:54.887Z,100.00
2022-12-18T01:46:25.453Z,100.00
2022-12-18T01:49:01.021Z,100.00
2022-12-18T01:51:28.584Z,100.00
2022-12-18T01:53:55.617Z,100.00
2022-12-18T01:56:22.827Z,100.00
2022-12-18T01:58:57.221Z,100.00
2022-12-18T02:01:25.461Z,100.00
2022-12-18T02:03:52.787Z,100.00
2022-12-18T02:06:25.209Z,100.00
2022-12-18T02:09:03.927Z,100.00
2022-12-18T02:11:43.847Z,100.00
2022-12-18T02:14:22.857Z,100.00
2022-12-18T02:16:58.551Z,100.00
2022-12-18T02:19:45.425Z,100.00
2022-12-18T02:22:31.234Z,100.00
2022-12-18T02:25:12.760Z,100.00
2022-12-18T02:27:43.219Z,100.00
2022-12-18T02:30:11.085Z,100.00
2022-12-18T02:32:44.421Z,100.00
2022-12-18T02:35:17.709Z,100.00
2022-12-18T02:37:47.120Z,100.00
2022-12-18T02:40:15.876Z,100.00
2022-12-18T02:42:44.446Z,100.00
2022-12-18T02:45:15.036Z,100.00
2022-12-18T02:47:44.981Z,100.00
2022-12-18T02:50:20.690Z,100.00
2022-12-18T02:52:54.433Z,100.00
2022-12-18T02:55:34.064Z,100.00
2022-12-18T02:58:15.547Z,100.00
2022-12-18T03:00:49.459Z,100.00
2022-12-18T03:03:22.831Z,100.00
2022-12-18T03:05:53.769Z,100.00
2022-12-18T03:08:24.806Z,100.00
2022-12-18T03:10:59.166Z,100.00
2022-12-18T03:13:34.483Z,100.00
2022-12-18T03:16:04.459Z,100.00
2022-12-18T03:18:37.712Z,100.00
2022-12-18T03:21:07.565Z,100.00
2022-12-18T03:23:42.345Z,100.00
2022-12-18T03:26:15.604Z,100.00
2022-12-18T03:28:50.143Z,100.00
2022-12-18T03:31:21.120Z,100.00
2022-12-18T03:33:53.444Z,100.00
2022-12-18T03:36:24.999Z,100.00
2022-12-18T03:38:52.749Z,100.00
2022-12-18T03:41:32.672Z,100.00
2022-12-18T03:44:24.844Z,100.00
2022-12-18T03:46:59.633Z,100.00
2022-12-18T03:49:35.291Z,100.00
2022-12-18T03:52:10.142Z,100.00
2022-12-18T03:54:41.954Z,100.00
2022-12-18T03:57:18.051Z,100.00
2022-12-18T03:59:48.441Z,100.00
2022-12-18T04:02:20.173Z,100.00
2022-12-18T04:04:48.917Z,100.00
2022-12-18T04:07:18.378Z,100.00
2022-12-18T04:09:46.842Z,100.00
2022-12-18T04:12:14.980Z,100.00
2022-12-18T04:14:41.959Z,100.00
2022-12-18T04:17:11.607Z,100.00
2022-12-18T04:19:38.372Z,100.00
2022-12-18T04:22:05.155Z,100.00
2022-12-18T04:24:38.430Z,100.00
2022-12-18T04:27:13.602Z,100.00
2022-12-18T04:29:44.514Z,100.00
2022-12-18T04:32:12.648Z,100.00
2022-12-18T04:34:41.798Z,100.00
2022-12-18T04:37:09.202Z,100.00
2022-12-18T04:39:36.808Z,100.00
2022-12-18T04:42:08.930Z,100.00
2022-12-18T04:44:35.676Z,100.00
2022-12-18T04:47:02.482Z,100.00
2022-12-18T04:49:30.622Z,100.00
2022-12-18T04:51:57.496Z,100.00
2022-12-18T04:54:24.286Z,100.00
2022-12-18T04:56:51.157Z,100.00
2022-12-18T04:59:18.013Z,100.00
2022-12-18T05:01:44.822Z,100.00
2022-12-18T05:04:11.867Z,100.00
2022-12-18T05:06:40.337Z,100.00
2022-12-18T05:09:07.724Z,100.00
2022-12-18T05:11:37.375Z,100.00
2022-12-18T05:14:04.201Z,100.00
2022-12-18T05:16:31.215Z,100.00
2022-12-18T05:18:57.944Z,100.00
2022-12-18T05:21:24.739Z,100.00
2022-12-18T05:23:52.866Z,100.00
2022-12-18T05:26:20.224Z,100.00
2022-12-18T05:28:47.230Z,100.00
2022-12-18T05:31:15.290Z,100.00
2022-12-18T05:33:42.732Z,100.00
2022-12-18T05:36:10.622Z,100.00
2022-12-18T05:38:39.071Z,100.00
2022-12-18T05:41:08.904Z,100.00
2022-12-18T05:43:37.544Z,100.00
2022-12-18T05:46:06.596Z,100.00
2022-12-18T05:48:33.550Z,100.00
2022-12-18T05:51:06.692Z,100.00
2022-12-18T05:53:33.615Z,100.00
2022-12-18T05:56:02.120Z,100.00
2022-12-18T05:58:30.596Z,100.00
2022-12-18T06:00:57.868Z,100.00
2022-12-18T06:03:29.273Z,100.00
2022-12-18T06:05:59.052Z,100.00
2022-12-18T06:08:25.820Z,100.00
2022-12-18T06:10:53.781Z,100.00
2022-12-18T06:13:20.595Z,100.00
2022-12-18T06:15:48.944Z,100.00
2022-12-18T06:18:15.812Z,100.00
2022-12-18T06:20:42.796Z,100.00
2022-12-18T06:23:10.458Z,100.00
2022-12-18T06:25:39.199Z,100.00
2022-12-18T06:28:06.390Z,100.00
2022-12-18T06:30:33.274Z,100.00
2022-12-18T06:33:01.475Z,100.00
2022-12-18T06:35:28.603Z,100.00
2022-12-18T06:37:55.350Z,100.00
2022-12-18T06:40:22.232Z,100.00
2022-12-18T06:42:49.438Z,100.00
2022-12-18T06:45:16.627Z,100.00
2022-12-18T06:47:43.729Z,100.00
2022-12-18T06:50:12.339Z,100.00
2022-12-18T06:52:40.189Z,100.00
2022-12-18T06:55:11.498Z,100.00
2022-12-18T06:57:38.922Z,100.00
2022-12-18T07:00:07.643Z,100.00
2022-12-18T07:02:34.956Z,100.00
2022-12-18T07:05:07.484Z,100.00
2022-12-18T07:07:38.622Z,100.00
2022-12-18T07:10:06.138Z,100.00
2022-12-18T07:12:32.925Z,100.00
2022-12-18T07:14:59.670Z,100.00
2022-12-18T07:17:26.505Z,100.00
2022-12-18T07:19:53.529Z,100.00
2022-12-18T07:22:20.300Z,100.00
2022-12-18T07:24:48.323Z,100.00
2022-12-18T07:27:15.040Z,100.00
2022-12-18T07:29:41.696Z,100.00
2022-12-18T07:32:08.618Z,100.00
2022-12-18T07:34:35.548Z,100.00
2022-12-18T07:37:02.396Z,100.00
2022-12-18T07:39:29.112Z,100.00
2022-12-18T07:42:16.250Z,100.00
2022-12-18T07:44:43.954Z,100.00
2022-12-18T07:47:12.366Z,100.00
2022-12-18T07:49:39.359Z,100.00
2022-12-18T07:52:06.107Z,100.00
2022-12-18T07:54:32.827Z,100.00
2022-12-18T07:57:00.966Z,100.00
2022-12-18T07:59:27.736Z,100.00
2022-12-18T08:01:54.654Z,100.00
2022-12-18T08:04:21.589Z,100.00
2022-12-18T08:06:48.608Z,100.00
2022-12-18T08:09:15.457Z,100.00
2022-12-18T08:11:42.843Z,100.00
2022-12-18T08:14:11.372Z,100.00
2022-12-18T08:16:38.394Z,100.00
2022-12-18T08:19:05.250Z,100.00
2022-12-18T08:21:32.822Z,100.00
2022-12-18T08:24:01.829Z,100.00
2022-12-18T08:26:31.465Z,100.00
2022-12-18T08:28:59.850Z,100.00
2022-12-18T08:31:30.617Z,100.00
2022-12-18T08:33:58.529Z,100.00
2022-12-18T08:36:26.251Z,100.00
2022-12-18T08:38:53.999Z,100.00
2022-12-18T08:41:21.912Z,100.00
2022-12-18T08:44:07.340Z,100.00
2022-12-18T08:46:37.891Z,100.00
2022-12-18T08:49:06.099Z,100.00
2022-12-18T08:51:33.317Z,100.00
2022-12-18T08:54:00.227Z,100.00
2022-12-18T08:56:27.102Z,100.00
2022-12-18T08:58:54.245Z,100.00
2022-12-18T09:01:21.840Z,100.00
2022-12-18T09:03:50.703Z,100.00
2022-12-18T09:06:19.046Z,100.00
2022-12-18T09:08:46.624Z,100.00
2022-12-18T09:11:15.838Z,100.00
2022-12-18T09:13:42.910Z,100.00
2022-12-18T09:16:09.927Z,100.00
2022-12-18T09:18:47.929Z,100.00
2022-12-18T09:21:24.712Z,100.00
2022-12-18T09:23:52.364Z,100.00
2022-12-18T09:26:19.327Z,100.00
2022-12-18T09:28:46.427Z,100.00
2022-12-18T09:31:14.213Z,100.00
2022-12-18T09:33:41.616Z,100.00
2022-12-18T09:36:16.038Z,100.00
2022-12-18T09:38:46.254Z,100.00
2022-12-18T09:41:29.450Z,100.00
2022-12-18T09:43:59.974Z,100.00
2022-12-18T09:46:31.567Z,100.00
2022-12-18T09:49:02.134Z,100.00
2022-12-18T09:51:36.048Z,100.00
2022-12-18T09:54:06.732Z,100.00
2022-12-18T09:56:38.692Z,100.00
2022-12-18T09:59:06.525Z,100.00
2022-12-18T10:01:41.723Z,100.00
2022-12-18T10:04:11.349Z,100.00
2022-12-18T10:06:47.358Z,100.00
2022-12-18T10:09:24.437Z,100.00
2022-12-18T10:11:57.591Z,100.00
2022-12-18T10:14:31.219Z,100.00
2022-12-18T10:17:04.944Z,100.00
2022-12-18T10:19:41.263Z,100.00
2022-12-18T10:22:22.466Z,100.00
2022-12-18T10:25:00.498Z,100.00
2022-12-18T10:27:29.758Z,100.00
2022-12-18T10:29:57.388Z,100.00
2022-12-18T10:32:26.984Z,100.00
2022-12-18T10:35:00.211Z,100.00
2022-12-18T10:37:31.005Z,100.00
2022-12-18T10:40:18.191Z,100.00
2022-12-18T10:43:03.756Z,100.00
2022-12-18T10:45:30.818Z,100.00
2022-12-18T10:47:57.690Z,100.00
2022-12-18T10:50:53.988Z,100.00
2022-12-18T10:53:21.757Z,100.00
2022-12-18T10:55:51.090Z,100.00
2022-12-18T10:58:26.724Z,100.00
2022-12-18T11:01:09.429Z,100.00
2022-12-18T11:03:38.526Z,100.00
2022-12-18T11:06:08.758Z,100.00
2022-12-18T11:08:36.087Z,100.00
2022-12-18T11:11:08.204Z,100.00
2022-12-18T11:13:35.098Z,100.00
2022-12-18T11:16:02.468Z,100.00
2022-12-18T11:18:33.109Z,100.00
2022-12-18T11:21:07.803Z,100.00
2022-12-18T11:23:35.582Z,100.00
2022-12-18T11:26:07.113Z,100.00
2022-12-18T11:28:39.367Z,100.00
2022-12-18T11:31:17.942Z,100.00
2022-12-18T11:34:11.999Z,100.00
2022-12-18T11:36:40.243Z,100.00
2022-12-18T11:39:15.910Z,100.00
2022-12-18T11:42:09.423Z,100.00
2022-12-18T11:44:39.284Z,100.00
2022-12-18T11:47:14.626Z,100.00
2022-12-18T11:49:42.667Z,100.00
2022-12-18T11:52:15.837Z,100.00
2022-12-18T11:54:44.055Z,100.00
2022-12-18T11:57:21.190Z,100.00
2022-12-18T11:59:56.915Z,100.00
2022-12-18T12:02:32.023Z,100.00
2022-12-18T12:05:13.578Z,100.00
2022-12-18T12:07:52.848Z,100.00
2022-12-18T12:10:37.493Z,100.00
2022-12-18T12:13:37.818Z,100.00
2022-12-18T12:16:18.185Z,100.00
2022-12-18T12:18:57.170Z,100.00
2022-12-18T12:21:29.767Z,100.00
2022-12-18T12:24:05.385Z,100.00
2022-12-18T12:26:39.981Z,100.00
2022-12-18T12:29:24.519Z,100.00
2022-12-18T12:32:08.709Z,100.00
2022-12-18T12:34:46.918Z,100.00
2022-12-18T12:37:24.776Z,100.00
2022-12-18T12:39:54.656Z,100.00
2022-12-18T12:42:43.064Z,100.00
2022-12-18T12:45:19.092Z,100.00
2022-12-18T12:47:50.479Z,100.00
2022-12-18T12:50:20.074Z,100.00
2022-12-18T12:52:51.016Z,100.00
2022-12-18T12:55:21.522Z,100.00
2022-12-18T12:57:59.145Z,100.00
2022-12-18T13:00:31.539Z,100.00
2022-12-18T13:03:13.130Z,100.00
2022-12-18T13:05:47.290Z,100.00
2022-12-18T13:08:25.321Z,100.00
2022-12-18T13:11:13.742Z,100.00
2022-12-18T13:13:51.490Z,100.00
2022-12-18T13:16:21.060Z,100.00
2022-12-18T13:18:53.818Z,100.00
2022-12-18T13:21:25.049Z,100.00
2022-12-18T13:23:52.362Z,100.00
2022-12-18T13:26:33.453Z,100.00
2022-12-18T13:29:03.073Z,100.00
2022-12-18T13:32:08.768Z,100.00
2022-12-18T13:34:37.603Z,100.00
2022-12-18T13:37:44.369Z,100.00
2022-12-18T13:40:40.954Z,100.00
2022-12-18T13:43:32.317Z,100.00
2022-12-18T13:46:18.476Z,100.00
2022-12-18T13:48:56.276Z,100.00
2022-12-18T13:51:26.275Z,100.00
2022-12-18T13:53:58.655Z,100.00
2022-12-18T13:56:27.578Z,100.00
2022-12-18T13:59:23.269Z,100.00
2022-12-18T14:01:55.185Z,100.00
2022-12-18T14:04:26.209Z,100.00
2022-12-18T14:06:58.814Z,100.00
2022-12-18T14:09:29.077Z,100.00
2022-12-18T14:12:18.391Z,100.00
2022-12-18T14:14:48.201Z,100.00
2022-12-18T14:17:16.855Z,100.00
2022-12-18T14:19:47.593Z,100.00
2022-12-18T14:22:22.130Z,100.00
2022-12-18T14:25:11.796Z,100.00
2022-12-18T14:27:42.556Z,100.00
2022-12-18T14:30:26.752Z,100.00
2022-12-18T14:33:01.972Z,100.00
2022-12-18T14:35:29.319Z,100.00
2022-12-18T14:38:25.830Z,100.00
2022-12-18T14:40:59.338Z,100.00
2022-12-18T14:43:27.578Z,100.00
2022-12-18T14:45:55.067Z,100.00
2022-12-18T14:48:31.607Z,100.00
2022-12-18T14:51:01.026Z,100.00
2022-12-18T14:53:37.776Z,100.00
2022-12-18T14:56:14.795Z,100.00
2022-12-18T14:58:46.557Z,100.00
2022-12-18T15:01:20.651Z,100.00
2022-12-18T15:03:47.717Z,100.00
2022-12-18T15:06:25.518Z,100.00
2022-12-18T15:08:54.275Z,100.00
2022-12-18T15:11:30.062Z,100.00
2022-12-18T15:13:59.707Z,100.00
2022-12-18T15:16:27.192Z,100.00
2022-12-18T15:18:54.716Z,100.00
2022-12-18T15:21:22.151Z,100.00
2022-12-18T15:23:51.633Z,100.00
2022-12-18T15:26:22.869Z,100.00
2022-12-18T15:28:52.030Z,100.00
2022-12-18T15:31:29.787Z,100.00
2022-12-18T15:34:15.255Z,100.00
2022-12-18T15:36:42.055Z,100.00
2022-12-18T15:39:12.373Z,100.00
2022-12-18T15:41:40.763Z,100.00
2022-12-18T15:44:23.820Z,100.00
2022-12-18T15:46:50.769Z,100.00
2022-12-18T15:49:17.709Z,100.00
2022-12-18T15:51:44.855Z,100.00
2022-12-18T15:54:17.175Z,100.00
2022-12-18T15:57:04.133Z,100.00
2022-12-18T15:59:31.027Z,100.00
2022-12-18T16:01:57.934Z,100.00
2022-12-18T16:04:26.030Z,100.00
2022-12-18T16:07:14.765Z,100.00
2022-12-18T16:09:39.839Z,100.00
2022-12-18T16:12:17.089Z,100.00
2022-12-18T16:14:44.376Z,100.00
2022-12-18T16:17:12.770Z,100.00
2022-12-18T16:19:39.943Z,100.00
2022-12-18T16:22:18.833Z,100.00
2022-12-18T16:24:45.712Z,99.87
2022-12-18T16:27:13.917Z,99.66
2022-12-18T16:29:40.813Z,98.95
2022-12-18T16:32:07.715Z,99.16
2022-12-18T16:34:36.298Z,98.64
2022-12-18T16:37:05.970Z,98.72
2022-12-18T16:39:35.135Z,100.00
2022-12-18T16:42:05.311Z,98.83
2022-12-18T16:44:34.988Z,99.17
2022-12-18T16:47:04.174Z,99.24
2022-12-18T16:49:32.002Z,100.00
2022-12-18T16:51:59.196Z,99.37
2022-12-18T16:54:26.270Z,99.47
2022-12-18T16:56:53.330Z,99.60
2022-12-18T16:59:20.346Z,99.56
2022-12-18T17:01:48.923Z,99.91
2022-12-18T17:04:17.300Z,99.28
2022-12-18T17:06:51.854Z,98.54
2022-12-18T17:09:26.357Z,98.62
2022-12-18T17:11:54.126Z,98.43
2022-12-18T17:14:23.289Z,99.04
2022-12-18T17:17:19.205Z,99.88
2022-12-18T17:19:39.764Z,98.70
2022-12-18T17:22:08.246Z,97.97
2022-12-18T17:24:35.686Z,98.14
2022-12-18T17:27:02.988Z,98.31
2022-12-18T17:29:30.593Z,98.13
2022-12-18T17:32:00.172Z,97.03
2022-12-18T17:34:27.480Z,96.47
2022-12-18T17:36:54.302Z,95.57
2022-12-18T17:39:21.540Z,95.42
2022-12-18T17:41:49.514Z,95.67
2022-12-18T17:44:16.882Z,95.56
2022-12-18T17:46:44.249Z,95.02
2022-12-18T17:49:12.678Z,93.55
2022-12-18T17:51:39.480Z,94.98
2022-12-18T17:54:06.513Z,94.11
2022-12-18T17:56:33.469Z,94.19
2022-12-18T17:59:01.247Z,94.50
2022-12-18T18:01:28.309Z,94.84
2022-12-18T18:04:00.545Z,94.97
2022-12-18T18:06:30.099Z,95.02
2022-12-18T18:08:58.222Z,95.20
2022-12-18T18:11:44.147Z,96.06
2022-12-18T18:14:15.929Z,94.12
2022-12-18T18:16:44.344Z,94.60
2022-12-18T18:19:13.575Z,95.02
2022-12-18T18:21:43.380Z,94.85
2022-12-18T18:24:12.841Z,93.40
2022-12-18T18:26:41.672Z,93.95
2022-12-18T18:29:09.636Z,93.22
2022-12-18T18:31:40.831Z,93.88
2022-12-18T18:34:08.516Z,94.64
2022-12-18T18:36:35.470Z,95.53
2022-12-18T18:39:04.448Z,95.33
2022-12-18T18:41:31.459Z,95.41
2022-12-18T18:43:59.144Z,95.05
2022-12-18T18:46:26.396Z,95.72
2022-12-18T18:48:53.925Z,95.48
2022-12-18T18:51:21.941Z,95.01
2022-12-18T18:53:51.024Z,94.78
2022-12-18T18:59:08.203Z,95.41
2022-12-18T19:01:35.220Z,94.63
2022-12-18T19:04:02.332Z,94.30
2022-12-18T19:06:29.939Z,94.74
2022-12-18T19:08:59.213Z,95.53
2022-12-18T19:11:46.400Z,95.27
2022-12-18T19:14:15.490Z,94.93
2022-12-18T19:16:43.673Z,95.19
2022-12-18T19:19:11.972Z,94.66
2022-12-18T19:21:40.059Z,94.92
2022-12-18T19:24:07.554Z,95.49
2022-12-18T19:26:37.895Z,95.08
2022-12-18T19:29:06.483Z,94.61
2022-12-18T19:31:36.460Z,93.93
2022-12-18T19:34:05.149Z,95.72
2022-12-18T19:36:33.670Z,94.88
2022-12-18T19:39:01.831Z,94.61
2022-12-18T19:41:32.060Z,95.20
2022-12-18T19:44:07.350Z,95.80
2022-12-18T19:46:37.162Z,95.12
2022-12-18T19:49:08.922Z,95.44
2022-12-18T19:51:36.069Z,95.46
2022-12-18T19:54:03.010Z,95.08
2022-12-18T19:56:31.787Z,95.41
2022-12-18T19:58:59.124Z,94.83
2022-12-18T20:01:28.632Z,95.98
2022-12-18T20:03:56.921Z,95.57
2022-12-18T20:06:27.916Z,96.01
2022-12-18T20:09:00.145Z,95.75
2022-12-18T20:11:28.474Z,94.87
2022-12-18T20:13:56.020Z,96.78
2022-12-18T20:16:25.305Z,96.40
2022-12-18T20:18:58.636Z,98.92
2022-12-18T20:21:26.857Z,99.80
2022-12-18T20:23:55.911Z,100.00
2022-12-18T20:26:24.045Z,100.00
2022-12-18T20:28:50.949Z,100.00
2022-12-18T20:31:17.827Z,100.00
2022-12-18T20:33:46.324Z,100.00
2022-12-18T20:36:22.096Z,100.00
2022-12-18T20:38:51.195Z,100.00
2022-12-18T20:41:19.946Z,100.00
2022-12-18T20:43:47.788Z,100.00
2022-12-18T20:46:16.734Z,100.00
2022-12-18T20:48:44.857Z,100.00
2022-12-18T20:51:13.437Z,100.00
2022-12-18T20:53:42.602Z,100.00
2022-12-18T20:56:12.013Z,100.00
2022-12-18T20:58:38.838Z,100.00
2022-12-18T21:01:08.430Z,100.00
2022-12-18T21:03:37.379Z,100.00
2022-12-18T21:06:05.007Z,100.00
2022-12-18T21:08:32.065Z,100.00
2022-12-18T21:11:34.816Z,100.00
2022-12-18T21:14:01.874Z,100.00
2022-12-18T21:16:28.944Z,100.00
2022-12-18T21:18:56.317Z,100.00
2022-12-18T21:21:26.952Z,100.00
2022-12-18T21:23:54.612Z,100.00
2022-12-18T21:26:24.961Z,100.00
2022-12-18T21:28:55.419Z,100.00
2022-12-18T21:31:23.561Z,100.00
2022-12-18T21:33:51.991Z,100.00
2022-12-18T21:36:22.776Z,100.00
2022-12-18T21:38:49.804Z,100.00
2022-12-18T21:41:41.926Z,100.00
2022-12-18T21:44:12.925Z,100.00
2022-12-18T21:46:41.489Z,100.00
2022-12-18T21:49:09.402Z,100.00
2022-12-18T21:51:36.998Z,100.00
2022-12-18T21:54:04.354Z,100.00
2022-12-18T21:56:44.294Z,100.00
2022-12-18T21:59:13.735Z,100.00
2022-12-18T22:01:40.793Z,100.00
2022-12-18T22:04:07.781Z,100.00
2022-12-18T22:06:34.974Z,100.00
2022-12-18T22:09:02.011Z,100.00
2022-12-18T22:11:28.871Z,100.00
2022-12-18T22:13:56.115Z,100.00
2022-12-18T22:16:26.110Z,100.00
2022-12-18T22:18:53.114Z,100.00
2022-12-18T22:21:28.711Z,100.00
2022-12-18T22:23:58.172Z,100.00
2022-12-18T22:26:26.565Z,100.00
2022-12-18T22:29:12.317Z,100.00
2022-12-18T22:31:41.930Z,100.00
2022-12-18T22:34:09.157Z,100.00
2022-12-18T22:36:37.579Z,100.00
2022-12-18T22:39:06.521Z,100.00
2022-12-18T22:41:33.422Z,100.00
2022-12-18T22:44:00.329Z,100.00
2022-12-18T22:46:31.030Z,100.00
2022-12-18T22:48:59.315Z,100.00
2022-12-18T22:51:26.180Z,100.00
2022-12-18T22:53:53.117Z,100.00
2022-12-18T22:56:21.983Z,100.00
2022-12-18T22:58:49.888Z,100.00
2022-12-18T23:01:20.131Z,100.00
2022-12-18T23:03:47.461Z,100.00
2022-12-18T23:06:16.010Z,100.00
2022-12-18T23:08:43.670Z,100.00
2022-12-18T23:11:11.639Z,100.00
2022-12-18T23:13:38.991Z,100.00
2022-12-18T23:16:07.485Z,100.00
2022-12-18T23:18:34.572Z,100.00
2022-12-18T23:21:05.936Z,100.00
2022-12-18T23:23:37.041Z,100.00
2022-12-18T23:26:06.098Z,100.00
2022-12-18T23:28:33.525Z,100.00
2022-12-18T23:31:06.571Z,100.00
2022-12-18T23:33:33.632Z,100.00
2022-12-18T23:36:01.111Z,100.00
2022-12-18T23:38:28.341Z,100.00
2022-12-18T23:40:57.076Z,100.00
2022-12-18T23:43:24.929Z,100.00
2022-12-18T23:45:55.631Z,100.00
2022-12-18T23:48:22.863Z,100.00
2022-12-18T23:50:49.637Z,100.00
2022-12-18T23:53:16.451Z,100.00
2022-12-18T23:55:44.406Z,100.00
2022-12-18T23:58:17.435Z,100.00
